Hampton, NH

12:50 PM EST on January 30, 2015 (GMT -0500)
Hampton Airfield 7B3 | Change Station
CLOSE
Current Station
Personal Weather Station
Location: North Hampton, NH
Elevation: 93 ft
Nearby Weather Stations
Active Advisory: Winter Storm Warning Active Notice: Public Information Statement

Elev 93 ft 42.96 °N, 70.83 °W | Updated 8 minutes ago

Snow
Snow
30.7 °F
Feels Like 31 °F
N
2.0
Wind Variable Wind from North
Gusts 2.0 mph

Today
High -- | Low -- °F
--% Chance of Precip.
Yesterday
High -- | Low -- °F
Precip. -- in
7:00 AM 4:53 PM
Waxing Gibbous, 84% visible
Pressure 29.76 in
Visibility 0.5 miles
Clouds
Windchill 31 °F
Dew Point 30 °F
Humidity 95%
Rainfall 0.00 in
Snow Depth Not available.
UV Not available.
Pollen .10 out of 12
Air Quality Not available.
Flu Activity Not available.
METAR KPSM 301658Z 29003KT 1/2SM R34/P6000FT SN FZFG VV013 M01/M02 A2974 RMK AO2A SLP076 P0004 T10141024

More Conditions Fewer Conditions

Pressure 29.76 in
Visibility 0.5 miles
Clouds
Windchill 31 °F
Dew Point 30 °F
Humidity 95%
Rainfall 0.00 in
Snow Depth Not available.
UV Not available.
Pollen .10 out of 12
Air Quality Not available.
Flu Activity Not available.
METAR KPSM 301658Z 29003KT 1/2SM R34/P6000FT SN FZFG VV013 M01/M02 A2974 RMK AO2A SLP076 P0004 T10141024

More Conditions Fewer Conditions

10-Day Weather Forecast

Almanac

Astronomy

Jan. 30, 2015 Rise Set
Actual Time
Civil Twilight
Nautical Twilight
Astronomical Twilight
Moon
Length of Visible Light
Length of Day
Tomorrow will be .
, % of the Moon is Illuminated

Today's Extremes

State Highs State Lows

Community

WunderPhotos

Upload Photos

1,791,835 photos uploaded!

WunderBlogs® & News

Nearby

Air Quality

  Air Quality AQ Index Pollutant
Not available.

Snow Depth

Station Depth Elevation

Earthquake Activity

City Distance Mag. Time & Date
Minimum magnitude displayed is 2.5.

Coastal Water Temperatures

Place Temperature

Nearby Weather Stations